createdAt,value
2022-12-03T00:00:17.135Z,178.40
2022-12-03T00:02:44.135Z,296.67
2022-12-03T00:05:11.300Z,295.05
2022-12-03T00:07:38.429Z,83.28
2022-12-03T00:10:06.392Z,163.55
2022-12-03T00:12:33.303Z,289.00
2022-12-03T00:15:00.204Z,187.00
2022-12-03T00:17:27.065Z,133.10
2022-12-03T00:22:20.643Z,407.80
2022-12-03T00:24:47.531Z,131.70
2022-12-03T00:27:14.413Z,302.23
2022-12-03T00:29:41.286Z,300.92
2022-12-03T00:32:08.144Z,439.42
2022-12-03T00:37:01.756Z,309.42
2022-12-03T00:39:28.691Z,434.17
2022-12-03T00:41:55.564Z,256.20
2022-12-03T00:44:22.455Z,261.37
2022-12-03T00:46:49.416Z,165.95
2022-12-03T00:49:16.293Z,313.73
2022-12-03T00:54:09.842Z,115.60
2022-12-03T00:56:36.681Z,335.35
2022-12-03T01:01:30.397Z,350.42
2022-12-03T01:03:57.327Z,195.70
2022-12-03T01:06:24.230Z,135.55
2022-12-03T01:08:51.130Z,45.22
2022-12-03T01:11:36.477Z,43.63
2022-12-03T01:14:04.395Z,42.90
2022-12-03T01:16:31.353Z,48.78
2022-12-03T01:18:58.261Z,44.40
2022-12-03T01:21:25.136Z,43.25
2022-12-03T01:23:52.044Z,38.65
2022-12-03T01:26:18.896Z,38.55
2022-12-03T01:31:31.229Z,38.70
2022-12-03T01:33:58.160Z,37.65
2022-12-03T01:36:25.055Z,41.28
2022-12-03T01:38:51.911Z,40.08
2022-12-03T01:41:19.295Z,38.70
2022-12-03T01:43:46.808Z,37.35
2022-12-03T01:46:19.492Z,41.28
2022-12-03T01:48:47.181Z,44.70
2022-12-03T01:51:14.713Z,44.58
2022-12-03T01:53:42.079Z,37.08
2022-12-03T01:56:12.045Z,41.00
2022-12-03T01:58:39.374Z,37.05
2022-12-03T02:01:17.684Z,36.13
2022-12-03T02:03:45.732Z,35.10
2022-12-03T02:06:17.437Z,40.63
2022-12-03T02:08:44.922Z,33.47
2022-12-03T02:11:32.551Z,30.25
2022-12-03T02:14:06.377Z,33.03
2022-12-03T02:16:35.498Z,36.83
2022-12-03T02:19:02.689Z,41.05
2022-12-03T02:21:47.981Z,37.03
2022-12-03T02:24:48.191Z,20.05
2022-12-03T02:27:15.057Z,38.83
2022-12-03T02:32:08.594Z,39.20
2022-12-03T02:39:32.239Z,36.10
2022-12-03T02:42:17.497Z,38.40
2022-12-03T02:44:44.427Z,39.10
2022-12-03T02:47:11.454Z,39.42
2022-12-03T02:49:38.331Z,42.47
2022-12-03T02:54:31.902Z,38.20
2022-12-03T02:56:58.854Z,41.20
2022-12-03T02:59:25.841Z,41.10
2022-12-03T03:01:52.731Z,44.42
2022-12-03T03:04:19.711Z,37.40
2022-12-03T03:06:47.027Z,39.22
2022-12-03T03:09:13.963Z,42.13
2022-12-03T03:11:40.874Z,50.97
2022-12-03T03:14:07.737Z,52.28
2022-12-03T03:19:02.340Z,100.60
2022-12-03T03:21:29.240Z,127.45
2022-12-03T03:23:56.120Z,239.43
2022-12-03T03:26:23.136Z,122.60
2022-12-03T03:28:51.837Z,62.83
2022-12-03T03:31:22.158Z,216.23
2022-12-03T03:33:50.231Z,231.55
2022-12-03T03:36:17.443Z,44.88
2022-12-03T03:38:44.370Z,82.55
2022-12-03T03:41:11.633Z,188.27
2022-12-03T03:43:39.236Z,116.50
2022-12-03T03:46:07.069Z,380.62
2022-12-03T03:48:35.270Z,363.60
2022-12-03T03:51:09.610Z,134.32
2022-12-03T03:53:42.656Z,77.95
2022-12-03T03:56:10.165Z,47.78
2022-12-03T03:58:37.928Z,128.23
2022-12-03T04:01:04.901Z,137.25
2022-12-03T04:03:31.784Z,170.43
2022-12-03T04:08:25.419Z,228.30
2022-12-03T04:11:10.863Z,46.78
2022-12-03T04:13:37.743Z,87.45
2022-12-03T04:16:04.806Z,113.88
2022-12-03T04:18:43.859Z,111.55
2022-12-03T04:21:34.962Z,206.70
2022-12-03T04:24:02.169Z,193.13
2022-12-03T04:26:47.801Z,129.77
2022-12-03T04:29:14.816Z,449.58
2022-12-03T04:32:00.878Z,200.15
2022-12-03T04:34:46.287Z,434.58
2022-12-03T04:37:13.267Z,437.85
2022-12-03T04:39:40.332Z,181.80
2022-12-03T04:42:07.538Z,80.47
2022-12-03T04:44:36.553Z,211.60
2022-12-03T04:47:20.389Z,76.00
2022-12-03T04:49:49.833Z,102.60
2022-12-03T04:52:18.657Z,85.18
2022-12-03T04:54:45.728Z,49.47
2022-12-03T04:57:12.999Z,51.00
2022-12-03T04:59:40.130Z,71.30
2022-12-03T05:02:07.450Z,99.68
2022-12-03T05:04:34.620Z,129.77
2022-12-03T05:07:01.514Z,49.75
2022-12-03T05:09:28.371Z,43.72
2022-12-03T05:14:21.987Z,37.72
2022-12-03T05:16:49.003Z,66.80
2022-12-03T05:19:15.929Z,81.72
2022-12-03T05:21:42.767Z,44.78
2022-12-03T05:26:36.318Z,147.55
2022-12-03T05:31:29.927Z,129.65
2022-12-03T05:33:56.857Z,65.90
2022-12-03T05:38:52.643Z,110.12
2022-12-03T05:41:38.031Z,122.57
2022-12-03T05:44:04.983Z,42.67
2022-12-03T05:46:34.227Z,57.13
2022-12-03T05:49:01.206Z,110.97
2022-12-03T05:51:28.196Z,83.53
2022-12-03T05:56:21.723Z,257.70
2022-12-03T06:01:15.311Z,77.15
2022-12-03T06:03:42.307Z,122.82
2022-12-03T06:06:09.259Z,191.20
2022-12-03T06:08:36.145Z,22.55
2022-12-03T06:11:03.047Z,157.75
2022-12-03T06:13:29.888Z,62.62
2022-12-03T06:18:23.578Z,99.82
2022-12-03T06:20:50.431Z,35.97
2022-12-03T06:25:43.986Z,33.63
2022-12-03T06:30:40.185Z,49.53
2022-12-03T06:33:07.111Z,33.65
2022-12-03T06:35:33.983Z,32.72
2022-12-03T06:38:00.996Z,45.60
2022-12-03T06:40:27.866Z,46.10
2022-12-03T06:45:21.469Z,51.08
2022-12-03T06:47:48.367Z,30.10
2022-12-03T06:50:15.290Z,52.83
2022-12-03T06:52:42.164Z,95.97
2022-12-03T06:55:09.687Z,221.20
2022-12-03T06:57:36.574Z,40.90
2022-12-03T07:00:06.481Z,169.15
2022-12-03T07:02:33.484Z,177.93
2022-12-03T07:05:00.417Z,86.20
2022-12-03T07:09:54.210Z,61.60
2022-12-03T07:12:21.087Z,82.20
2022-12-03T07:14:47.918Z,53.70
2022-12-03T07:19:41.482Z,143.15
2022-12-03T07:24:35.020Z,23.70
2022-12-03T07:27:01.874Z,80.38
2022-12-03T07:31:55.525Z,48.60
2022-12-03T07:34:22.433Z,61.42
2022-12-03T07:39:16.133Z,40.80
2022-12-03T07:41:42.967Z,31.30
2022-12-03T07:46:43.017Z,40.15
2022-12-03T07:49:10.125Z,41.10
2022-12-03T07:51:37.052Z,53.20
2022-12-03T07:54:04.383Z,118.03
2022-12-03T07:56:31.269Z,35.83
2022-12-03T07:58:58.128Z,213.50
2022-12-03T08:03:51.809Z,36.85
2022-12-03T08:06:18.693Z,71.53
2022-12-03T08:08:45.658Z,120.45
2022-12-03T08:11:15.111Z,238.43
2022-12-03T08:13:42.041Z,69.07
2022-12-03T08:16:18.415Z,26.15
2022-12-03T08:18:46.495Z,55.70
2022-12-03T08:21:14.984Z,169.52
2022-12-03T08:23:42.018Z,88.43
2022-12-03T08:26:20.942Z,77.93
2022-12-03T08:28:47.907Z,33.35
2022-12-03T08:31:26.830Z,195.32
2022-12-03T08:34:14.287Z,116.78
2022-12-03T08:36:41.174Z,99.68
2022-12-03T08:39:22.978Z,121.97
2022-12-03T08:42:33.981Z,214.15
2022-12-03T08:45:30.427Z,219.98
2022-12-03T08:47:58.664Z,137.02
2022-12-03T08:50:31.100Z,225.05
2022-12-03T08:53:25.980Z,155.10
2022-12-03T08:55:54.378Z,121.43
2022-12-03T08:58:21.163Z,135.48
2022-12-03T09:03:17.162Z,116.22
2022-12-03T09:05:44.049Z,28.17
2022-12-03T09:08:10.977Z,91.93
2022-12-03T09:10:38.844Z,103.60
2022-12-03T09:13:05.697Z,105.60
2022-12-03T09:17:59.550Z,142.73
2022-12-03T09:20:26.430Z,34.67
2022-12-03T09:22:53.311Z,29.35
2022-12-03T09:25:20.206Z,187.32
2022-12-03T09:27:47.054Z,99.53
2022-12-03T09:32:40.716Z,75.95
2022-12-03T09:37:34.694Z,65.83
2022-12-03T09:42:28.522Z,46.58
2022-12-03T09:44:55.939Z,44.00
2022-12-03T09:47:25.771Z,49.80
2022-12-03T09:49:53.239Z,31.40
2022-12-03T09:52:25.389Z,68.55
2022-12-03T09:54:53.834Z,24.80
2022-12-03T09:57:21.099Z,55.17
2022-12-03T09:59:48.007Z,17.45
2022-12-03T10:02:29.613Z,22.00
2022-12-03T10:04:57.912Z,43.85
2022-12-03T10:07:25.851Z,32.30
2022-12-03T10:09:53.547Z,46.58
2022-12-03T10:12:23.687Z,31.33
2022-12-03T10:14:50.935Z,40.72
2022-12-03T10:17:17.970Z,44.08
2022-12-03T10:19:45.217Z,37.42
2022-12-03T10:22:12.123Z,30.58
2022-12-03T10:24:39.320Z,36.88
2022-12-03T10:27:24.432Z,37.00
2022-12-03T10:29:56.354Z,37.65
2022-12-03T10:32:45.935Z,35.17
2022-12-03T10:35:18.715Z,41.83
2022-12-03T10:38:01.869Z,30.42
2022-12-03T10:40:32.768Z,39.30
2022-12-03T10:43:18.088Z,36.20
2022-12-03T10:46:04.855Z,33.63
2022-12-03T10:48:31.860Z,47.25
2022-12-03T10:51:07.152Z,22.65
2022-12-03T10:53:35.810Z,42.15
2022-12-03T10:56:05.370Z,43.42
2022-12-03T10:58:36.072Z,19.70
2022-12-03T11:01:06.504Z,56.65
2022-12-03T11:03:37.182Z,31.95
2022-12-03T11:06:04.248Z,52.17
2022-12-03T11:08:34.025Z,30.75
2022-12-03T11:11:00.820Z,38.28
2022-12-03T11:15:57.941Z,29.87
2022-12-03T11:18:37.122Z,45.55
2022-12-03T11:21:08.136Z,53.33
2022-12-03T11:23:47.318Z,39.17
2022-12-03T11:26:27.334Z,43.38
2022-12-03T11:28:56.818Z,38.88
2022-12-03T11:31:40.869Z,43.30
2022-12-03T11:34:20.540Z,27.13
2022-12-03T11:37:13.015Z,39.72
2022-12-03T11:39:49.989Z,56.58
2022-12-03T11:42:25.918Z,38.75
2022-12-03T11:45:04.881Z,59.63
2022-12-03T11:47:34.722Z,41.78
2022-12-03T11:50:01.699Z,52.13
2022-12-03T11:52:38.775Z,59.33
2022-12-03T11:55:19.118Z,55.78
2022-12-03T11:57:46.222Z,48.85
2022-12-03T12:00:19.854Z,58.60
2022-12-03T12:02:46.789Z,63.50
2022-12-03T12:05:39.718Z,63.42
2022-12-03T12:08:18.945Z,45.17
2022-12-03T12:10:49.823Z,56.67
2022-12-03T12:13:32.111Z,71.05
2022-12-03T12:16:00.163Z,59.03
2022-12-03T12:18:41.904Z,54.15
2022-12-03T12:21:43.129Z,48.55
2022-12-03T12:24:30.415Z,69.20
2022-12-03T12:27:01.905Z,52.25
2022-12-03T12:29:28.892Z,45.20
2022-12-03T12:32:11.175Z,43.67
2022-12-03T12:34:39.604Z,50.10
2022-12-03T12:37:14.851Z,44.13
2022-12-03T12:39:41.856Z,46.65
2022-12-03T12:42:30.400Z,38.25
2022-12-03T12:45:22.861Z,66.28
2022-12-03T12:48:09.953Z,53.80
2022-12-03T12:50:41.886Z,53.00
2022-12-03T12:53:12.995Z,43.72
2022-12-03T12:55:40.207Z,57.38
2022-12-03T12:58:19.595Z,53.83
2022-12-03T13:00:51.325Z,37.40
2022-12-03T13:03:21.835Z,56.03
2022-12-03T13:05:50.203Z,51.83
2022-12-03T13:08:39.263Z,64.93
2022-12-03T13:11:06.678Z,55.70
2022-12-03T13:13:44.258Z,50.12
2022-12-03T13:16:27.140Z,52.35
2022-12-03T13:18:55.927Z,61.35
2022-12-03T13:21:39.758Z,51.35
2022-12-03T13:24:38.677Z,40.72
2022-12-03T13:27:17.572Z,50.83
2022-12-03T13:29:45.647Z,59.50
2022-12-03T13:32:16.557Z,68.75
2022-12-03T13:34:44.789Z,56.22
2022-12-03T13:37:18.853Z,62.38
2022-12-03T13:39:53.508Z,52.28
2022-12-03T13:42:46.732Z,83.68
2022-12-03T13:45:16.559Z,73.68
2022-12-03T13:47:51.221Z,60.35
2022-12-03T13:50:39.392Z,41.35
2022-12-03T13:53:19.471Z,71.75
2022-12-03T13:55:50.429Z,84.78
2022-12-03T13:58:17.304Z,77.80
2022-12-03T14:03:10.984Z,80.28
2022-12-03T14:05:37.901Z,92.93
2022-12-03T14:08:06.315Z,118.25
2022-12-03T14:10:33.447Z,113.53
2022-12-03T14:13:00.325Z,87.82
2022-12-03T14:17:53.976Z,145.77
2022-12-03T14:20:22.831Z,97.50
2022-12-03T14:22:49.734Z,79.68
2022-12-03T14:25:16.641Z,116.30
2022-12-03T14:27:43.536Z,80.40
2022-12-03T14:30:11.068Z,115.35
2022-12-03T14:32:37.909Z,45.53
2022-12-03T14:37:37.222Z,146.27
2022-12-03T14:40:07.249Z,66.97
2022-12-03T14:42:34.116Z,82.62
2022-12-03T14:47:27.669Z,91.90
2022-12-03T14:49:54.794Z,79.32
2022-12-03T14:52:21.835Z,77.72
2022-12-03T14:54:48.735Z,46.83
2022-12-03T14:57:15.916Z,105.12
2022-12-03T14:59:43.666Z,81.50
2022-12-03T15:02:11.578Z,91.03
2022-12-03T15:04:39.698Z,95.15
2022-12-03T15:07:07.606Z,87.60
2022-12-03T15:09:34.750Z,185.25
2022-12-03T15:12:01.682Z,83.72
2022-12-03T15:14:28.583Z,40.70
2022-12-03T15:16:55.693Z,110.82
2022-12-03T15:19:23.595Z,121.90
2022-12-03T15:21:50.475Z,105.05
2022-12-03T15:24:17.368Z,69.68
2022-12-03T15:26:44.288Z,118.50
2022-12-03T15:29:11.323Z,55.47
2022-12-03T15:31:38.196Z,56.42
2022-12-03T15:34:05.403Z,72.97
2022-12-03T15:36:32.239Z,52.45
2022-12-03T15:41:29.332Z,45.30
2022-12-03T15:43:58.405Z,69.65
2022-12-03T15:46:26.313Z,45.50
2022-12-03T15:48:53.507Z,39.85
2022-12-03T15:51:20.396Z,70.40
2022-12-03T15:53:47.350Z,76.95
2022-12-03T15:56:14.199Z,54.10
2022-12-03T16:01:09.514Z,47.70
2022-12-03T16:03:36.773Z,51.88
2022-12-03T16:06:03.954Z,74.75
2022-12-03T16:08:30.987Z,70.18
2022-12-03T16:10:58.063Z,36.00
2022-12-03T16:13:25.019Z,77.25
2022-12-03T16:15:51.943Z,71.60
2022-12-03T16:18:18.836Z,74.93
2022-12-03T16:23:13.441Z,44.42
2022-12-03T16:25:40.322Z,59.42
2022-12-03T16:28:07.228Z,75.40
2022-12-03T16:30:36.352Z,69.75
2022-12-03T16:33:03.351Z,70.95
2022-12-03T16:35:30.192Z,52.15
2022-12-03T16:40:23.729Z,22.37
2022-12-03T16:42:50.609Z,32.83
2022-12-03T16:45:40.819Z,41.45
2022-12-03T16:48:07.656Z,56.83
2022-12-03T16:53:04.279Z,55.38
2022-12-03T16:55:31.151Z,37.10
2022-12-03T16:57:58.024Z,59.92
2022-12-03T17:00:26.948Z,50.45
2022-12-03T17:02:53.878Z,41.75
2022-12-03T17:05:20.795Z,55.03
2022-12-03T17:10:14.545Z,53.92
2022-12-03T17:13:08.942Z,51.53
2022-12-03T17:15:28.521Z,51.92
2022-12-03T17:17:55.608Z,72.30
2022-12-03T17:20:22.571Z,74.32
2022-12-03T17:22:49.465Z,48.92
2022-12-03T17:25:16.875Z,49.03
2022-12-03T17:27:45.580Z,66.62
2022-12-03T17:30:13.332Z,61.25
2022-12-03T17:32:40.375Z,54.80
2022-12-03T17:35:07.836Z,72.82
2022-12-03T17:37:35.127Z,50.47
2022-12-03T17:40:02.549Z,40.72
2022-12-03T17:42:29.420Z,63.95
2022-12-03T17:44:56.369Z,71.85
2022-12-03T17:47:23.199Z,53.83
2022-12-03T17:52:19.355Z,67.00
2022-12-03T17:57:33.068Z,57.03
2022-12-03T18:02:26.648Z,55.83
2022-12-03T18:07:20.285Z,58.33
2022-12-03T18:09:47.238Z,47.58
2022-12-03T18:12:14.088Z,41.90
2022-12-03T18:17:07.684Z,61.70
2022-12-03T18:19:34.594Z,61.88
2022-12-03T18:22:01.459Z,67.93
2022-12-03T18:26:55.027Z,70.37
2022-12-03T18:29:21.878Z,51.53
2022-12-03T18:44:56.233Z,62.10
2022-12-03T18:47:26.596Z,69.93
2022-12-03T18:49:54.079Z,49.65
2022-12-03T18:52:23.162Z,74.18
2022-12-03T18:54:50.031Z,60.38
2022-12-03T18:59:43.667Z,60.50
2022-12-03T19:02:53.868Z,74.22
2022-12-03T19:05:07.033Z,39.90
2022-12-03T19:07:33.995Z,49.80
2022-12-03T19:10:00.954Z,69.47
2022-12-03T19:12:27.955Z,70.60
2022-12-03T19:14:54.847Z,54.17
2022-12-03T19:17:21.896Z,72.80
2022-12-03T19:19:48.820Z,59.92
2022-12-03T19:22:15.809Z,55.28
2022-12-03T19:27:09.911Z,68.25
2022-12-03T19:29:36.793Z,58.90
2022-12-03T19:32:04.014Z,60.83
2022-12-03T19:34:30.957Z,61.20
2022-12-03T19:36:57.820Z,67.00
2022-12-03T19:39:25.009Z,64.03
2022-12-03T19:41:51.911Z,65.65
2022-12-03T19:44:19.357Z,57.42
2022-12-03T19:46:46.252Z,62.42
2022-12-03T19:49:13.127Z,66.20
2022-12-03T19:51:40.003Z,69.07
2022-12-03T19:54:10.271Z,61.55
2022-12-03T19:56:37.537Z,53.72
2022-12-03T19:59:05.342Z,54.33
2022-12-03T20:01:34.356Z,56.63
2022-12-03T20:04:03.216Z,61.95
2022-12-03T20:06:32.584Z,52.45
2022-12-03T20:09:06.663Z,52.42
2022-12-03T20:11:34.812Z,37.83
2022-12-03T20:14:05.138Z,64.97
2022-12-03T20:16:32.258Z,68.05
2022-12-03T20:19:01.481Z,47.45
2022-12-03T20:21:30.023Z,59.42
2022-12-03T20:23:56.907Z,63.80
2022-12-03T20:26:24.866Z,63.38
2022-12-03T20:28:54.197Z,56.20
2022-12-03T20:31:23.151Z,64.35
2022-12-03T20:33:51.941Z,78.70
2022-12-03T20:36:20.839Z,42.13
2022-12-03T20:38:47.754Z,54.75
2022-12-03T20:41:18.596Z,61.33
2022-12-03T20:43:45.976Z,50.67
2022-12-03T20:46:25.626Z,53.38
2022-12-03T20:48:54.211Z,61.05
2022-12-03T20:51:22.977Z,68.53
2022-12-03T20:53:49.987Z,62.85
2022-12-03T20:56:20.358Z,64.55
2022-12-03T20:58:51.138Z,37.22
2022-12-03T21:01:19.334Z,68.93
2022-12-03T21:03:47.247Z,56.78
2022-12-03T21:06:14.968Z,67.12
2022-12-03T21:08:43.083Z,70.15
2022-12-03T21:11:12.101Z,54.78
2022-12-03T21:13:41.759Z,57.30
2022-12-03T21:16:10.612Z,48.03
2022-12-03T21:18:37.771Z,66.25
2022-12-03T21:21:05.730Z,63.17
2022-12-03T21:23:33.559Z,66.50
2022-12-03T21:26:17.537Z,68.78
2022-12-03T21:28:50.283Z,57.58
2022-12-03T21:31:19.703Z,62.95
2022-12-03T21:33:47.021Z,64.65
2022-12-03T21:36:16.101Z,62.53
2022-12-03T21:38:44.434Z,50.95
2022-12-03T21:41:12.408Z,52.75
2022-12-03T21:43:39.318Z,51.72
2022-12-03T21:47:11.823Z,65.68
2022-12-03T21:48:58.104Z,74.35
2022-12-03T21:53:51.677Z,68.93
2022-12-03T21:56:19.604Z,67.75
2022-12-03T21:58:46.982Z,52.97
2022-12-03T22:01:19.950Z,69.53
2022-12-03T22:03:47.263Z,66.82
2022-12-03T22:06:14.557Z,51.08
2022-12-03T22:08:41.795Z,103.50
2022-12-03T22:11:13.330Z,76.37
2022-12-03T22:13:41.198Z,106.95
2022-12-03T22:16:11.127Z,89.75
2022-12-03T22:18:38.515Z,96.40
2022-12-03T22:21:07.219Z,89.53
2022-12-03T22:23:34.428Z,94.13
2022-12-03T22:26:03.831Z,100.75
2022-12-03T22:28:30.825Z,95.10
2022-12-03T22:30:57.779Z,46.08
2022-12-03T22:33:25.214Z,71.22
2022-12-03T22:36:00.336Z,56.65
2022-12-03T22:38:29.085Z,65.18
2022-12-03T22:40:57.085Z,67.00
2022-12-03T22:43:24.741Z,52.58
2022-12-03T22:45:55.671Z,67.32
2022-12-03T22:48:23.810Z,94.47
2022-12-03T22:50:51.832Z,102.03
2022-12-03T22:53:19.270Z,57.50
2022-12-03T22:55:56.389Z,59.47
2022-12-03T22:58:23.410Z,201.57
2022-12-03T23:00:50.484Z,56.10
2022-12-03T23:03:17.678Z,115.37
2022-12-03T23:05:44.830Z,118.78
2022-12-03T23:08:15.970Z,150.82
2022-12-03T23:10:44.843Z,186.73
2022-12-03T23:13:12.302Z,196.50
2022-12-03T23:15:47.504Z,144.90
2022-12-03T23:18:14.571Z,145.50
2022-12-03T23:20:52.543Z,187.93
2022-12-03T23:23:20.854Z,53.45
2022-12-03T23:26:05.547Z,118.60
2022-12-03T23:28:34.426Z,216.57
2022-12-03T23:31:01.494Z,71.32
2022-12-03T23:33:28.927Z,96.25
2022-12-03T23:35:55.760Z,40.20
2022-12-03T23:40:49.827Z,86.90
2022-12-03T23:43:16.793Z,56.90
2022-12-03T23:45:43.672Z,103.78
2022-12-03T23:48:10.625Z,135.65
2022-12-03T23:50:41.504Z,132.35
2022-12-03T23:53:09.150Z,156.85
2022-12-03T23:55:40.004Z,149.93
2022-12-03T23:58:06.892Z,381.15
